sensor_id;sensor_type;location;lat;lon;timestamp;pressure;altitude;pressure_sealevel;temperature;humidity
19259;BME280;9763;48.780;9.212;2024-01-30T00:00:34;99739.56;;;7.46;65.81
19259;BME280;9763;48.780;9.212;2024-01-30T00:03:58;99734.34;;;7.47;65.31
19259;BME280;9763;48.780;9.212;2024-01-30T00:07:22;99731.78;;;7.46;65.16
19259;BME280;9763;48.780;9.212;2024-01-30T00:10:46;99734.44;;;7.44;65.30
19259;BME280;9763;48.780;9.212;2024-01-30T00:14:09;99738.75;;;7.44;65.80
19259;BME280;9763;48.780;9.212;2024-01-30T00:17:34;99737.06;;;7.43;65.75
19259;BME280;9763;48.780;9.212;2024-01-30T00:20:59;99735.38;;;7.42;65.04
19259;BME280;9763;48.780;9.212;2024-01-30T00:24:22;99732.91;;;7.37;65.43
19259;BME280;9763;48.780;9.212;2024-01-30T00:27:46;99743.28;;;7.37;65.29
19259;BME280;9763;48.780;9.212;2024-01-30T00:31:10;99737.34;;;7.34;65.84
19259;BME280;9763;48.780;9.212;2024-01-30T00:34:36;99738.34;;;7.30;65.63
19259;BME280;9763;48.780;9.212;2024-01-30T00:38:00;99738.41;;;7.27;65.64
19259;BME280;9763;48.780;9.212;2024-01-30T00:41:24;99733.22;;;7.27;65.76
19259;BME280;9763;48.780;9.212;2024-01-30T00:44:47;99736.59;;;7.30;65.65
19259;BME280;9763;48.780;9.212;2024-01-30T00:48:11;99733.91;;;7.33;65.55
19259;BME280;9763;48.780;9.212;2024-01-30T00:51:36;99742.31;;;7.41;65.32
19259;BME280;9763;48.780;9.212;2024-01-30T00:55:00;99739.72;;;7.41;65.42
19259;BME280;9763;48.780;9.212;2024-01-30T00:58:24;99741.53;;;7.38;65.66
19259;BME280;9763;48.780;9.212;2024-01-30T01:01:48;99738.22;;;7.34;66.27
19259;BME280;9763;48.780;9.212;2024-01-30T01:05:12;99746.88;;;7.33;66.36
19259;BME280;9763;48.780;9.212;2024-01-30T01:08:37;99743.47;;;7.31;66.03
19259;BME280;9763;48.780;9.212;2024-01-30T01:12:01;99728.06;;;7.25;66.12
19259;BME280;9763;48.780;9.212;2024-01-30T01:15:25;99746.88;;;7.33;66.03
19259;BME280;9763;48.780;9.212;2024-01-30T01:18:51;99743.34;;;7.36;66.66
19259;BME280;9763;48.780;9.212;2024-01-30T01:22:16;99747.75;;;7.34;65.95
19259;BME280;9763;48.780;9.212;2024-01-30T01:25:42;99737.44;;;7.31;66.01
19259;BME280;9763;48.780;9.212;2024-01-30T01:29:06;99726.44;;;7.22;66.19
19259;BME280;9763;48.780;9.212;2024-01-30T01:32:32;99749.56;;;7.30;66.79
19259;BME280;9763;48.780;9.212;2024-01-30T01:35:56;99734.06;;;7.27;66.74
19259;BME280;9763;48.780;9.212;2024-01-30T01:39:19;99740.28;;;7.23;66.44
19259;BME280;9763;48.780;9.212;2024-01-30T01:42:45;99738.56;;;7.22;66.49
19259;BME280;9763;48.780;9.212;2024-01-30T01:46:09;99731.69;;;7.21;66.09
19259;BME280;9763;48.780;9.212;2024-01-30T01:49:33;99737.72;;;7.21;66.64
19259;BME280;9763;48.780;9.212;2024-01-30T01:52:56;99738.66;;;7.19;65.94
19259;BME280;9763;48.780;9.212;2024-01-30T01:56:21;99734.41;;;7.16;66.06
19259;BME280;9763;48.780;9.212;2024-01-30T01:59:47;99733.63;;;7.13;66.39
19259;BME280;9763;48.780;9.212;2024-01-30T02:03:11;99729.38;;;7.12;66.16
19259;BME280;9763;48.780;9.212;2024-01-30T02:06:37;99731.97;;;7.12;66.11
19259;BME280;9763;48.780;9.212;2024-01-30T02:10:01;99738.91;;;7.11;65.78
19259;BME280;9763;48.780;9.212;2024-01-30T02:13:26;99748.47;;;7.09;66.02
19259;BME280;9763;48.780;9.212;2024-01-30T02:16:51;99744.22;;;7.07;65.76
19259;BME280;9763;48.780;9.212;2024-01-30T02:20:15;99732.38;;;6.98;65.93
19259;BME280;9763;48.780;9.212;2024-01-30T02:23:42;99737.50;;;7.00;65.99
19259;BME280;9763;48.780;9.212;2024-01-30T02:27:06;99743.69;;;6.96;65.77
19259;BME280;9763;48.780;9.212;2024-01-30T02:30:30;99744.66;;;6.92;66.20
19259;BME280;9763;48.780;9.212;2024-01-30T02:33:55;99744.69;;;6.90;66.44
19259;BME280;9763;48.780;9.212;2024-01-30T02:37:19;99743.94;;;6.86;65.88
19259;BME280;9763;48.780;9.212;2024-01-30T02:40:44;99741.34;;;6.86;66.27
19259;BME280;9763;48.780;9.212;2024-01-30T02:44:07;99740.50;;;6.86;65.94
19259;BME280;9763;48.780;9.212;2024-01-30T02:47:31;99734.47;;;6.85;65.96
19259;BME280;9763;48.780;9.212;2024-01-30T02:50:54;99736.19;;;6.85;66.35
19259;BME280;9763;48.780;9.212;2024-01-30T02:54:18;99735.47;;;6.80;65.83
19259;BME280;9763;48.780;9.212;2024-01-30T02:57:43;99739.00;;;6.77;65.99
19259;BME280;9763;48.780;9.212;2024-01-30T03:01:07;99735.69;;;6.72;66.71
19259;BME280;9763;48.780;9.212;2024-01-30T03:04:31;99737.41;;;6.73;66.02
19259;BME280;9763;48.780;9.212;2024-01-30T03:07:55;99736.59;;;6.71;65.92
19259;BME280;9763;48.780;9.212;2024-01-30T03:11:19;99735.75;;;6.71;66.47
19259;BME280;9763;48.780;9.212;2024-01-30T03:14:43;99741.81;;;6.70;65.95
19259;BME280;9763;48.780;9.212;2024-01-30T03:18:07;99737.59;;;6.66;66.46
19259;BME280;9763;48.780;9.212;2024-01-30T03:21:31;99719.03;;;6.50;66.67
19259;BME280;9763;48.780;9.212;2024-01-30T03:24:54;99737.91;;;6.55;66.58
19259;BME280;9763;48.780;9.212;2024-01-30T03:28:18;99734.66;;;6.47;66.14
19259;BME280;9763;48.780;9.212;2024-01-30T03:31:43;99734.63;;;6.48;66.38
19259;BME280;9763;48.780;9.212;2024-01-30T03:35:07;99745.16;;;6.42;66.28
19259;BME280;9763;48.780;9.212;2024-01-30T03:38:31;99736.69;;;6.36;66.88
19259;BME280;9763;48.780;9.212;2024-01-30T03:41:55;99737.47;;;6.39;66.34
19259;BME280;9763;48.780;9.212;2024-01-30T03:45:19;99749.59;;;6.39;66.34
19259;BME280;9763;48.780;9.212;2024-01-30T03:48:45;99747.88;;;6.38;67.08
19259;BME280;9763;48.780;9.212;2024-01-30T03:52:09;99732.66;;;6.26;66.53
19259;BME280;9763;48.780;9.212;2024-01-30T03:55:33;99740.44;;;6.26;66.54
19259;BME280;9763;48.780;9.212;2024-01-30T03:58:57;99741.25;;;6.28;67.17
19259;BME280;9763;48.780;9.212;2024-01-30T04:02:22;99746.38;;;6.29;67.00
19259;BME280;9763;48.780;9.212;2024-01-30T04:05:47;99737.09;;;6.21;66.97
19259;BME280;9763;48.780;9.212;2024-01-30T04:09:10;99747.25;;;6.28;66.55
19259;BME280;9763;48.780;9.212;2024-01-30T04:12:35;99752.44;;;6.28;66.92
19259;BME280;9763;48.780;9.212;2024-01-30T04:15:59;99748.91;;;6.31;66.88
19259;BME280;9763;48.780;9.212;2024-01-30T04:19:23;99750.63;;;6.32;67.01
19259;BME280;9763;48.780;9.212;2024-01-30T04:22:48;99745.44;;;6.32;66.70
19259;BME280;9763;48.780;9.212;2024-01-30T04:26:12;99745.44;;;6.32;66.08
19259;BME280;9763;48.780;9.212;2024-01-30T04:29:36;99739.53;;;6.27;66.43
19259;BME280;9763;48.780;9.212;2024-01-30T04:32:59;99735.38;;;6.20;66.62
19259;BME280;9763;48.780;9.212;2024-01-30T04:36:23;99744.09;;;6.17;66.66
19259;BME280;9763;48.780;9.212;2024-01-30T04:39:48;99736.38;;;6.16;66.46
19259;BME280;9763;48.780;9.212;2024-01-30T04:43:11;99731.31;;;6.11;66.53
19259;BME280;9763;48.780;9.212;2024-01-30T04:46:35;99744.19;;;6.14;67.06
19259;BME280;9763;48.780;9.212;2024-01-30T04:49:58;99736.53;;;6.09;67.18
19259;BME280;9763;48.780;9.212;2024-01-30T04:53:22;99747.63;;;6.14;66.52
19259;BME280;9763;48.780;9.212;2024-01-30T04:56:47;99745.22;;;6.07;67.04
19259;BME280;9763;48.780;9.212;2024-01-30T05:00:12;99755.56;;;6.08;66.58
19259;BME280;9763;48.780;9.212;2024-01-30T05:03:36;99753.88;;;6.06;66.77
19259;BME280;9763;48.780;9.212;2024-01-30T05:07:00;99749.53;;;6.06;67.36
19259;BME280;9763;48.780;9.212;2024-01-30T05:10:23;99749.53;;;6.06;66.97
19259;BME280;9763;48.780;9.212;2024-01-30T05:13:48;99758.22;;;6.05;66.95
19259;BME280;9763;48.780;9.212;2024-01-30T05:17:12;99744.56;;;5.99;66.52
19259;BME280;9763;48.780;9.212;2024-01-30T05:20:35;99754.88;;;6.02;67.19
19259;BME280;9763;48.780;9.212;2024-01-30T05:23:59;99750.53;;;6.02;67.00
19259;BME280;9763;48.780;9.212;2024-01-30T05:27:23;99750.63;;;5.98;66.74
19259;BME280;9763;48.780;9.212;2024-01-30T05:30:47;99755.88;;;5.95;66.58
19259;BME280;9763;48.780;9.212;2024-01-30T05:34:12;99755.06;;;5.93;66.74
19259;BME280;9763;48.780;9.212;2024-01-30T05:37:36;99760.25;;;5.93;67.23
19259;BME280;9763;48.780;9.212;2024-01-30T05:41:00;99743.94;;;5.89;66.40
19259;BME280;9763;48.780;9.212;2024-01-30T05:44:23;99752.56;;;5.90;66.67
19259;BME280;9763;48.780;9.212;2024-01-30T05:47:48;99765.38;;;5.96;66.48
19259;BME280;9763;48.780;9.212;2024-01-30T05:51:12;99764.44;;;5.98;67.05
19259;BME280;9763;48.780;9.212;2024-01-30T05:54:36;99765.22;;;6.02;67.02
19259;BME280;9763;48.780;9.212;2024-01-30T05:57:59;99766.09;;;6.02;66.51
19259;BME280;9763;48.780;9.212;2024-01-30T06:01:23;99777.31;;;6.03;66.39
19259;BME280;9763;48.780;9.212;2024-01-30T06:04:48;99774.81;;;5.98;66.85
19259;BME280;9763;48.780;9.212;2024-01-30T06:08:12;99768.91;;;5.92;67.44
19259;BME280;9763;48.780;9.212;2024-01-30T06:11:35;99775.69;;;5.97;67.39
19259;BME280;9763;48.780;9.212;2024-01-30T06:14:59;99766.38;;;5.90;67.06
19259;BME280;9763;48.780;9.212;2024-01-30T06:18:23;99765.59;;;5.85;67.72
19259;BME280;9763;48.780;9.212;2024-01-30T06:21:50;99765.75;;;5.79;67.57
19259;BME280;9763;48.780;9.212;2024-01-30T06:25:14;99763.16;;;5.79;67.46
19259;BME280;9763;48.780;9.212;2024-01-30T06:28:39;99723.22;;;5.52;67.13
19259;BME280;9763;48.780;9.212;2024-01-30T06:32:03;99764.97;;;5.75;67.80
19259;BME280;9763;48.780;9.212;2024-01-30T06:35:27;99769.22;;;5.78;67.09
19259;BME280;9763;48.780;9.212;2024-01-30T06:38:52;99767.59;;;5.74;67.67
19259;BME280;9763;48.780;9.212;2024-01-30T06:42:16;99779.72;;;5.72;67.45
19259;BME280;9763;48.780;9.212;2024-01-30T06:45:39;99775.44;;;5.71;67.65
19259;BME280;9763;48.780;9.212;2024-01-30T06:49:03;99772.78;;;5.74;67.88
19259;BME280;9763;48.780;9.212;2024-01-30T06:52:27;99774.44;;;5.76;67.34
19259;BME280;9763;48.780;9.212;2024-01-30T06:55:52;99777.88;;;5.77;67.64
19259;BME280;9763;48.780;9.212;2024-01-30T06:59:15;99771.09;;;5.71;67.56
19259;BME280;9763;48.780;9.212;2024-01-30T07:02:39;99771.09;;;5.71;67.34
19259;BME280;9763;48.780;9.212;2024-01-30T07:06:03;99778.03;;;5.71;67.47
19259;BME280;9763;48.780;9.212;2024-01-30T07:09:26;99782.19;;;5.78;67.43
19259;BME280;9763;48.780;9.212;2024-01-30T07:12:52;99784.78;;;5.78;68.04
19259;BME280;9763;48.780;9.212;2024-01-30T07:16:16;99787.28;;;5.81;67.73
19259;BME280;9763;48.780;9.212;2024-01-30T07:19:40;99784.59;;;5.86;68.31
19259;BME280;9763;48.780;9.212;2024-01-30T07:23:04;99772.44;;;5.88;67.76
19259;BME280;9763;48.780;9.212;2024-01-30T07:26:27;99791.03;;;6.05;67.48
19259;BME280;9763;48.780;9.212;2024-01-30T07:29:52;99786.50;;;6.14;67.79
19259;BME280;9763;48.780;9.212;2024-01-30T07:33:16;99790.56;;;6.25;68.11
19259;BME280;9763;48.780;9.212;2024-01-30T07:36:39;99792.06;;;6.33;67.30
19259;BME280;9763;48.780;9.212;2024-01-30T07:40:07;99791.78;;;6.44;67.74
19259;BME280;9763;48.780;9.212;2024-01-30T07:43:30;99784.63;;;6.54;67.05
19259;BME280;9763;48.780;9.212;2024-01-30T07:46:59;99792.19;;;6.63;66.98
19259;BME280;9763;48.780;9.212;2024-01-30T07:50:23;99786.03;;;6.65;67.64
19259;BME280;9763;48.780;9.212;2024-01-30T07:53:53;99790.97;;;6.76;66.98
19259;BME280;9763;48.780;9.212;2024-01-30T07:57:19;99796.78;;;6.84;67.52
19259;BME280;9763;48.780;9.212;2024-01-30T08:00:43;99794.81;;;6.92;67.04
19259;BME280;9763;48.780;9.212;2024-01-30T08:04:08;99794.47;;;7.04;67.47
19259;BME280;9763;48.780;9.212;2024-01-30T08:07:32;99791.50;;;7.16;67.18
19259;BME280;9763;48.780;9.212;2024-01-30T08:10:55;99794.66;;;7.28;66.82
19259;BME280;9763;48.780;9.212;2024-01-30T08:14:19;99780.50;;;7.38;66.71
19259;BME280;9763;48.780;9.212;2024-01-30T08:17:43;99780.25;;;7.47;67.34
19259;BME280;9763;48.780;9.212;2024-01-30T08:21:09;99788.31;;;7.66;66.43
19259;BME280;9763;48.780;9.212;2024-01-30T08:24:32;99794.75;;;7.82;67.23
19259;BME280;9763;48.780;9.212;2024-01-30T08:27:56;99787.19;;;8.01;66.49
19259;BME280;9763;48.780;9.212;2024-01-30T08:31:20;99786.47;;;8.22;66.51
19259;BME280;9763;48.780;9.212;2024-01-30T08:34:44;99784.91;;;8.44;66.41
19259;BME280;9763;48.780;9.212;2024-01-30T08:38:09;99785.81;;;8.68;66.90
19259;BME280;9763;48.780;9.212;2024-01-30T08:41:34;99785.16;;;8.86;66.79
19259;BME280;9763;48.780;9.212;2024-01-30T08:44:58;99787.09;;;9.05;66.02
19259;BME280;9763;48.780;9.212;2024-01-30T08:48:21;99787.31;;;9.22;65.94
19259;BME280;9763;48.780;9.212;2024-01-30T08:51:45;99784.03;;;9.40;65.96
19259;BME280;9763;48.780;9.212;2024-01-30T08:55:11;99778.09;;;9.58;66.34
19259;BME280;9763;48.780;9.212;2024-01-30T08:58:34;99784.47;;;9.73;66.09
19259;BME280;9763;48.780;9.212;2024-01-30T09:01:58;99785.75;;;9.85;66.58
19259;BME280;9763;48.780;9.212;2024-01-30T09:05:33;99791.25;;;9.99;66.06
19259;BME280;9763;48.780;9.212;2024-01-30T09:08:57;99792.53;;;10.10;66.31
19259;BME280;9763;48.780;9.212;2024-01-30T09:12:22;99798.13;;;10.23;65.92
19259;BME280;9763;48.780;9.212;2024-01-30T09:15:46;99798.47;;;10.36;66.30
19259;BME280;9763;48.780;9.212;2024-01-30T09:19:10;99804.19;;;10.44;65.50
19259;BME280;9763;48.780;9.212;2024-01-30T09:22:33;99808.31;;;10.50;65.96
19259;BME280;9763;48.780;9.212;2024-01-30T09:25:57;99806.41;;;10.53;66.10
19259;BME280;9763;48.780;9.212;2024-01-30T09:29:22;99788.41;;;10.47;65.41
19259;BME280;9763;48.780;9.212;2024-01-30T09:32:45;99801.00;;;10.58;65.79
19259;BME280;9763;48.780;9.212;2024-01-30T09:36:09;99809.41;;;10.64;66.01
19259;BME280;9763;48.780;9.212;2024-01-30T09:39:33;99809.16;;;10.70;65.88
19259;BME280;9763;48.780;9.212;2024-01-30T09:42:58;99802.81;;;10.76;65.98
19259;BME280;9763;48.780;9.212;2024-01-30T09:46:29;99795.28;;;10.89;65.21
19259;BME280;9763;48.780;9.212;2024-01-30T09:49:56;99805.13;;;11.02;65.37
19259;BME280;9763;48.780;9.212;2024-01-30T09:53:21;99806.88;;;11.22;65.68
19259;BME280;9763;48.780;9.212;2024-01-30T09:56:47;99802.56;;;11.40;65.75
19259;BME280;9763;48.780;9.212;2024-01-30T10:00:12;99800.72;;;11.61;65.72
19259;BME280;9763;48.780;9.212;2024-01-30T10:03:37;99805.13;;;11.79;64.90
19259;BME280;9763;48.780;9.212;2024-01-30T10:07:02;99805.94;;;11.98;65.48
19259;BME280;9763;48.780;9.212;2024-01-30T10:10:26;99813.50;;;12.21;64.60
19259;BME280;9763;48.780;9.212;2024-01-30T10:13:50;99807.97;;;12.45;65.46
19259;BME280;9763;48.780;9.212;2024-01-30T10:17:14;99806.38;;;12.59;64.87
19259;BME280;9763;48.780;9.212;2024-01-30T10:20:51;99797.72;;;12.75;64.29
19259;BME280;9763;48.780;9.212;2024-01-30T10:24:15;99792.78;;;12.86;64.86
19259;BME280;9763;48.780;9.212;2024-01-30T10:27:40;99790.66;;;12.92;64.23
19259;BME280;9763;48.780;9.212;2024-01-30T10:31:03;99796.81;;;13.09;64.58
19259;BME280;9763;48.780;9.212;2024-01-30T10:34:29;99793.50;;;13.22;64.49
19259;BME280;9763;48.780;9.212;2024-01-30T10:37:57;99790.22;;;13.34;63.75
19259;BME280;9763;48.780;9.212;2024-01-30T10:41:26;99786.00;;;13.48;64.33
19259;BME280;9763;48.780;9.212;2024-01-30T10:45:00;99784.56;;;13.58;63.82
19259;BME280;9763;48.780;9.212;2024-01-30T10:48:41;99787.44;;;13.69;63.40
19259;BME280;9763;48.780;9.212;2024-01-30T10:52:10;99773.97;;;13.75;64.15
19259;BME280;9763;48.780;9.212;2024-01-30T10:55:39;99770.22;;;13.95;63.98
19259;BME280;9763;48.780;9.212;2024-01-30T10:59:03;99766.03;;;14.06;63.88
19259;BME280;9763;48.780;9.212;2024-01-30T11:02:30;99766.44;;;14.15;63.55
19259;BME280;9763;48.780;9.212;2024-01-30T11:05:58;99767.50;;;14.26;63.88
19259;BME280;9763;48.780;9.212;2024-01-30T11:09:22;99774.44;;;14.43;63.80
19259;BME280;9763;48.780;9.212;2024-01-30T11:12:48;99764.66;;;14.61;63.64
19259;BME280;9763;48.780;9.212;2024-01-30T11:16:13;99759.03;;;14.81;63.29
19259;BME280;9763;48.780;9.212;2024-01-30T11:19:37;99765.59;;;15.02;63.75
19259;BME280;9763;48.780;9.212;2024-01-30T11:23:02;99763.50;;;15.22;62.79
19259;BME280;9763;48.780;9.212;2024-01-30T11:26:28;99755.91;;;15.31;63.10
19259;BME280;9763;48.780;9.212;2024-01-30T11:29:53;99752.97;;;15.36;62.31
19259;BME280;9763;48.780;9.212;2024-01-30T11:33:29;99744.31;;;15.34;62.20
19259;BME280;9763;48.780;9.212;2024-01-30T11:36:58;99747.63;;;15.37;62.81
19259;BME280;9763;48.780;9.212;2024-01-30T11:40:23;99743.19;;;15.38;62.43
19259;BME280;9763;48.780;9.212;2024-01-30T11:43:52;99748.56;;;15.36;62.03
19259;BME280;9763;48.780;9.212;2024-01-30T11:47:17;99746.88;;;15.35;62.05
19259;BME280;9763;48.780;9.212;2024-01-30T11:50:42;99739.81;;;15.36;62.76
19259;BME280;9763;48.780;9.212;2024-01-30T11:54:07;99742.25;;;15.39;62.10
19259;BME280;9763;48.780;9.212;2024-01-30T11:57:31;99735.13;;;15.41;62.75
19259;BME280;9763;48.780;9.212;2024-01-30T12:00:55;99729.84;;;15.41;62.31
19259;BME280;9763;48.780;9.212;2024-01-30T12:04:20;99725.03;;;15.47;62.66
19259;BME280;9763;48.780;9.212;2024-01-30T12:07:44;99713.56;;;15.48;61.99
19259;BME280;9763;48.780;9.212;2024-01-30T12:11:09;99722.81;;;15.56;62.53
19259;BME280;9763;48.780;9.212;2024-01-30T12:14:32;99719.34;;;15.55;62.46
19259;BME280;9763;48.780;9.212;2024-01-30T12:18:04;99709.91;;;15.51;61.61
19259;BME280;9763;48.780;9.212;2024-01-30T12:21:31;99691.34;;;15.40;61.63
19259;BME280;9763;48.780;9.212;2024-01-30T12:24:55;99707.47;;;15.48;62.08
19259;BME280;9763;48.780;9.212;2024-01-30T12:28:19;99707.38;;;15.49;62.21
19259;BME280;9763;48.780;9.212;2024-01-30T12:31:43;99702.84;;;15.52;61.95
19259;BME280;9763;48.780;9.212;2024-01-30T12:35:08;99700.97;;;15.54;62.57
19259;BME280;9763;48.780;9.212;2024-01-30T12:38:34;99690.38;;;15.55;62.34
19259;BME280;9763;48.780;9.212;2024-01-30T12:41:58;99694.38;;;15.61;62.04
19259;BME280;9763;48.780;9.212;2024-01-30T12:45:22;99692.41;;;15.64;62.28
19259;BME280;9763;48.780;9.212;2024-01-30T12:48:45;99694.94;;;15.66;62.23
19259;BME280;9763;48.780;9.212;2024-01-30T12:52:09;99688.44;;;15.71;61.94
19259;BME280;9763;48.780;9.212;2024-01-30T12:55:35;99695.00;;;15.78;62.40
19259;BME280;9763;48.780;9.212;2024-01-30T12:58:59;99695.50;;;15.83;62.09
19259;BME280;9763;48.780;9.212;2024-01-30T13:02:22;99695.03;;;15.91;61.49
19259;BME280;9763;48.780;9.212;2024-01-30T13:05:46;99704.41;;;15.95;61.71
19259;BME280;9763;48.780;9.212;2024-01-30T13:09:10;99703.44;;;15.96;62.12
19259;BME280;9763;48.780;9.212;2024-01-30T13:12:35;99700.81;;;15.96;61.96
19259;BME280;9763;48.780;9.212;2024-01-30T13:16:00;99702.50;;;15.97;62.04
19259;BME280;9763;48.780;9.212;2024-01-30T13:19:24;99706.72;;;16.00;62.05
19259;BME280;9763;48.780;9.212;2024-01-30T13:22:48;99686.59;;;15.99;61.59
19259;BME280;9763;48.780;9.212;2024-01-30T13:26:12;99692.75;;;16.12;61.27
19259;BME280;9763;48.780;9.212;2024-01-30T13:29:37;99700.03;;;16.21;62.02
19259;BME280;9763;48.780;9.212;2024-01-30T13:33:01;99694.66;;;16.23;62.09
19259;BME280;9763;48.780;9.212;2024-01-30T13:36:26;99686.34;;;16.16;61.53
19259;BME280;9763;48.780;9.212;2024-01-30T13:39:50;99695.94;;;16.17;61.80
19259;BME280;9763;48.780;9.212;2024-01-30T13:43:13;99689.25;;;16.11;61.65
19259;BME280;9763;48.780;9.212;2024-01-30T13:46:38;99688.84;;;16.05;60.98
19259;BME280;9763;48.780;9.212;2024-01-30T13:50:02;99692.63;;;16.01;61.67
19259;BME280;9763;48.780;9.212;2024-01-30T13:53:27;99688.50;;;15.97;61.08
19259;BME280;9763;48.780;9.212;2024-01-30T13:56:51;99685.81;;;15.84;61.11
19259;BME280;9763;48.780;9.212;2024-01-30T14:00:15;99696.16;;;15.87;61.45
19259;BME280;9763;48.780;9.212;2024-01-30T14:03:40;99691.94;;;15.84;61.67
19259;BME280;9763;48.780;9.212;2024-01-30T14:07:05;99691.31;;;15.81;61.51
19259;BME280;9763;48.780;9.212;2024-01-30T14:10:29;99688.22;;;15.74;61.72
19259;BME280;9763;48.780;9.212;2024-01-30T14:13:53;99688.75;;;15.67;61.33
19259;BME280;9763;48.780;9.212;2024-01-30T14:17:16;99692.69;;;15.60;61.13
19259;BME280;9763;48.780;9.212;2024-01-30T14:20:41;99688.00;;;15.50;61.31
19259;BME280;9763;48.780;9.212;2024-01-30T14:24:05;99698.19;;;15.42;61.73
19259;BME280;9763;48.780;9.212;2024-01-30T14:27:29;99700.34;;;15.36;61.60
19259;BME280;9763;48.780;9.212;2024-01-30T14:30:52;99696.44;;;15.29;61.89
19259;BME280;9763;48.780;9.212;2024-01-30T14:34:16;99696.09;;;15.21;61.50
19259;BME280;9763;48.780;9.212;2024-01-30T14:37:46;99706.41;;;15.09;61.81
19259;BME280;9763;48.780;9.212;2024-01-30T14:41:10;99698.25;;;15.00;61.17
19259;BME280;9763;48.780;9.212;2024-01-30T14:44:34;99710.19;;;14.91;61.54
19259;BME280;9763;48.780;9.212;2024-01-30T14:47:58;99719.50;;;14.83;61.77
19259;BME280;9763;48.780;9.212;2024-01-30T14:51:23;99715.75;;;14.72;61.67
19259;BME280;9763;48.780;9.212;2024-01-30T14:54:48;99722.47;;;14.62;61.62
19259;BME280;9763;48.780;9.212;2024-01-30T14:58:11;99728.28;;;14.53;61.87
19259;BME280;9763;48.780;9.212;2024-01-30T15:01:35;99733.09;;;14.47;61.43
19259;BME280;9763;48.780;9.212;2024-01-30T15:04:59;99737.97;;;14.37;61.88
19259;BME280;9763;48.780;9.212;2024-01-30T15:08:23;99741.25;;;14.26;61.99
19259;BME280;9763;48.780;9.212;2024-01-30T15:11:48;99751.38;;;14.18;62.18
19259;BME280;9763;48.780;9.212;2024-01-30T15:15:12;99749.28;;;14.09;61.63
19259;BME280;9763;48.780;9.212;2024-01-30T15:18:36;99755.91;;;14.00;62.21
19259;BME280;9763;48.780;9.212;2024-01-30T15:21:59;99758.19;;;13.91;62.02
19259;BME280;9763;48.780;9.212;2024-01-30T15:25:23;99751.78;;;13.81;62.00
19259;BME280;9763;48.780;9.212;2024-01-30T15:28:48;99753.16;;;13.72;62.35
19259;BME280;9763;48.780;9.212;2024-01-30T15:32:11;99756.78;;;13.54;61.84
19259;BME280;9763;48.780;9.212;2024-01-30T15:35:35;99762.72;;;13.42;62.25
19259;BME280;9763;48.780;9.212;2024-01-30T15:39:00;99769.53;;;13.28;62.33
19259;BME280;9763;48.780;9.212;2024-01-30T15:42:24;99779.78;;;13.17;62.95
19259;BME280;9763;48.780;9.212;2024-01-30T15:45:49;99768.13;;;13.06;62.47
19259;BME280;9763;48.780;9.212;2024-01-30T15:49:13;99692.88;;;12.43;63.17
19259;BME280;9763;48.780;9.212;2024-01-30T15:52:37;99781.38;;;12.87;62.61
19259;BME280;9763;48.780;9.212;2024-01-30T15:56:01;99787.88;;;12.80;63.22
19259;BME280;9763;48.780;9.212;2024-01-30T15:59:24;99795.34;;;12.70;62.91
19259;BME280;9763;48.780;9.212;2024-01-30T16:02:50;99791.28;;;12.65;62.87
19259;BME280;9763;48.780;9.212;2024-01-30T16:06:14;99802.91;;;12.59;62.99
19259;BME280;9763;48.780;9.212;2024-01-30T16:09:38;99800.59;;;12.53;63.49
19259;BME280;9763;48.780;9.212;2024-01-30T16:13:02;99769.78;;;12.23;63.45
19259;BME280;9763;48.780;9.212;2024-01-30T16:16:26;99806.69;;;12.36;63.74
19259;BME280;9763;48.780;9.212;2024-01-30T16:19:51;99813.94;;;12.31;63.21
19259;BME280;9763;48.780;9.212;2024-01-30T16:23:16;99798.56;;;12.23;63.95
19259;BME280;9763;48.780;9.212;2024-01-30T16:26:39;99808.34;;;12.20;63.63
19259;BME280;9763;48.780;9.212;2024-01-30T16:30:04;99813.81;;;12.15;63.72
19259;BME280;9763;48.780;9.212;2024-01-30T16:33:28;99813.03;;;12.13;63.88
19259;BME280;9763;48.780;9.212;2024-01-30T16:36:53;99814.09;;;12.09;63.35
19259;BME280;9763;48.780;9.212;2024-01-30T16:40:16;99816.91;;;12.06;62.94
19259;BME280;9763;48.780;9.212;2024-01-30T16:43:40;99816.31;;;12.00;63.54
19259;BME280;9763;48.780;9.212;2024-01-30T16:47:04;99821.03;;;11.93;63.72
19259;BME280;9763;48.780;9.212;2024-01-30T16:50:28;99807.59;;;11.82;63.46
19259;BME280;9763;48.780;9.212;2024-01-30T16:53:53;99813.75;;;11.81;63.42
19259;BME280;9763;48.780;9.212;2024-01-30T16:57:16;99812.25;;;11.75;63.41
19259;BME280;9763;48.780;9.212;2024-01-30T17:00:40;99814.97;;;11.72;63.92
19259;BME280;9763;48.780;9.212;2024-01-30T17:04:04;99798.81;;;11.64;64.09
19259;BME280;9763;48.780;9.212;2024-01-30T17:07:28;99811.50;;;11.72;63.77
19259;BME280;9763;48.780;9.212;2024-01-30T17:10:57;99819.19;;;11.76;64.24
19259;BME280;9763;48.780;9.212;2024-01-30T17:14:21;99753.81;;;11.39;63.55
19259;BME280;9763;48.780;9.212;2024-01-30T17:17:45;99827.50;;;11.84;63.56
19259;BME280;9763;48.780;9.212;2024-01-30T17:21:16;99828.22;;;11.88;63.50
19259;BME280;9763;48.780;9.212;2024-01-30T17:24:40;99826.38;;;11.90;63.61
19259;BME280;9763;48.780;9.212;2024-01-30T17:28:13;99828.94;;;11.92;62.98
19259;BME280;9763;48.780;9.212;2024-01-30T17:31:36;99835.88;;;11.93;62.79
19259;BME280;9763;48.780;9.212;2024-01-30T17:35:00;99842.94;;;11.90;63.41
19259;BME280;9763;48.780;9.212;2024-01-30T17:38:24;99846.41;;;11.91;63.18
19259;BME280;9763;48.780;9.212;2024-01-30T17:41:47;99848.94;;;11.93;62.85
19259;BME280;9763;48.780;9.212;2024-01-30T17:45:15;99850.66;;;11.94;63.08
19259;BME280;9763;48.780;9.212;2024-01-30T17:48:40;99853.19;;;11.95;63.31
19259;BME280;9763;48.780;9.212;2024-01-30T17:52:06;99861.97;;;11.94;63.45
19259;BME280;9763;48.780;9.212;2024-01-30T17:55:30;99865.44;;;11.95;63.50
19259;BME280;9763;48.780;9.212;2024-01-30T17:58:53;99874.94;;;11.96;62.81
19259;BME280;9763;48.780;9.212;2024-01-30T18:02:18;99875.78;;;11.96;63.24
19259;BME280;9763;48.780;9.212;2024-01-30T18:05:42;99868.13;;;11.93;63.13
19259;BME280;9763;48.780;9.212;2024-01-30T18:09:06;99871.41;;;11.97;63.85
19259;BME280;9763;48.780;9.212;2024-01-30T18:12:30;99872.25;;;11.97;63.72
19259;BME280;9763;48.780;9.212;2024-01-30T18:15:54;99876.50;;;12.00;63.34
19259;BME280;9763;48.780;9.212;2024-01-30T18:19:19;99875.44;;;12.04;63.80
19259;BME280;9763;48.780;9.212;2024-01-30T18:22:43;99877.94;;;12.07;63.09
19259;BME280;9763;48.780;9.212;2024-01-30T18:26:08;99854.19;;;11.93;63.33